createdAt,value
2023-04-03T05:01:25.547Z,-0.43
2023-04-03T05:03:59.703Z,-0.42
2023-04-03T05:06:27.075Z,-0.45
2023-04-03T05:08:55.770Z,-0.43
2023-04-03T05:11:25.252Z,-0.43
2023-04-03T05:13:53.836Z,-0.45
2023-04-03T05:16:22.621Z,-0.47
2023-04-03T05:18:49.885Z,-0.48
2023-04-03T05:21:20.257Z,-0.49
2023-04-03T05:23:48.802Z,-0.48
2023-04-03T05:26:15.714Z,-0.50
2023-04-03T05:28:44.534Z,-0.50
2023-04-03T05:31:12.233Z,-0.47
2023-04-03T05:33:39.514Z,-0.49
2023-04-03T05:36:09.523Z,-0.48
2023-04-03T05:38:43.645Z,-0.50
2023-04-03T05:41:10.952Z,-0.46
2023-04-03T05:43:41.852Z,-0.42
2023-04-03T05:46:18.581Z,-0.41
2023-04-03T05:48:49.366Z,-0.39
2023-04-03T05:51:40.583Z,-0.38
2023-04-03T05:54:29.766Z,-0.39
2023-04-03T05:57:04.497Z,-0.39
2023-04-03T05:59:31.398Z,-0.38
2023-04-03T06:02:00.431Z,-0.34
2023-04-03T06:04:27.129Z,-0.29
2023-04-03T06:06:57.267Z,-0.26
2023-04-03T06:09:29.829Z,-0.27
2023-04-03T06:11:57.377Z,-0.25
2023-04-03T06:14:25.059Z,-0.23
2023-04-03T06:16:52.693Z,-0.20
2023-04-03T06:19:20.317Z,-0.13
2023-04-03T06:21:51.744Z,-0.16
2023-04-03T06:24:19.234Z,-0.14
2023-04-03T06:26:46.670Z,-0.09
2023-04-03T06:29:13.433Z,-0.05
2023-04-03T06:31:40.755Z,0.05
2023-04-03T06:34:09.683Z,0.13
2023-04-03T06:36:37.157Z,0.24
2023-04-03T06:39:04.135Z,0.33
2023-04-03T06:41:31.855Z,0.45
2023-04-03T06:43:59.396Z,0.56
2023-04-03T06:46:28.456Z,0.70
2023-04-03T06:48:55.125Z,0.84
2023-04-03T06:51:28.105Z,1.04
2023-04-03T06:53:56.646Z,1.14
2023-04-03T06:56:24.492Z,1.27
2023-04-03T06:58:52.480Z,1.39
2023-04-03T07:01:23.396Z,1.57
2023-04-03T07:03:50.146Z,1.74
2023-04-03T07:06:18.648Z,1.96
2023-04-03T07:08:46.482Z,2.07
2023-04-03T07:11:14.211Z,2.15
2023-04-03T07:13:40.927Z,2.36
2023-04-03T07:16:08.871Z,2.56
2023-04-03T07:18:36.421Z,2.73
2023-04-03T07:21:04.948Z,2.80
2023-04-03T07:23:31.776Z,3.01
2023-04-03T07:25:58.809Z,3.27
2023-04-03T07:28:26.772Z,3.44
2023-04-03T07:31:07.342Z,3.49
2023-04-03T07:33:33.968Z,3.53
2023-04-03T07:36:01.728Z,3.62
2023-04-03T07:38:29.174Z,3.71
2023-04-03T07:40:56.711Z,3.85
2023-04-03T07:43:23.632Z,4.02
2023-04-03T07:45:52.078Z,4.20
2023-04-03T07:48:20.844Z,4.26
2023-04-03T07:50:48.149Z,4.35
2023-04-03T07:53:14.971Z,4.53
2023-04-03T07:55:44.356Z,4.79
2023-04-03T07:58:12.409Z,4.89
2023-04-03T08:00:40.541Z,4.93
2023-04-03T08:03:10.316Z,4.83
2023-04-03T08:05:40.323Z,4.76
2023-04-03T08:08:08.618Z,4.82
2023-04-03T08:10:36.104Z,4.90
2023-04-03T08:13:03.818Z,4.92
2023-04-03T08:15:32.113Z,4.92
2023-04-03T08:17:59.508Z,5.02
2023-04-03T08:20:27.552Z,5.07
2023-04-03T08:22:54.454Z,4.82
2023-04-03T08:25:21.852Z,4.66
2023-04-03T08:27:48.792Z,4.56
2023-04-03T08:30:16.207Z,4.68
2023-04-03T08:32:44.029Z,4.85
2023-04-03T08:35:12.242Z,4.75
2023-04-03T08:37:39.971Z,4.87
2023-04-03T08:40:13.950Z,4.81
2023-04-03T08:42:47.007Z,4.69
2023-04-03T08:45:22.592Z,4.66
2023-04-03T08:48:15.660Z,4.83
2023-04-03T08:50:46.698Z,4.88
2023-04-03T08:53:16.467Z,4.94
2023-04-03T08:55:49.197Z,4.96
2023-04-03T08:58:33.043Z,4.97
2023-04-03T09:01:21.971Z,5.02
2023-04-03T09:03:48.993Z,4.96
2023-04-03T09:06:21.964Z,4.73
2023-04-03T09:09:16.728Z,4.72
2023-04-03T09:12:10.926Z,4.83
2023-04-03T09:15:17.960Z,4.91
2023-04-03T09:17:44.916Z,5.01
2023-04-03T09:20:33.861Z,5.08
2023-04-03T09:23:00.657Z,5.19
2023-04-03T09:25:35.798Z,5.21
2023-04-03T09:28:03.643Z,5.13
2023-04-03T09:30:30.884Z,5.07
2023-04-03T09:32:58.363Z,5.16
2023-04-03T09:35:47.412Z,5.41
2023-04-03T09:38:18.872Z,5.54
2023-04-03T09:40:50.828Z,5.56
2023-04-03T09:43:27.196Z,5.38
2023-04-03T09:45:55.726Z,5.40
2023-04-03T09:48:25.823Z,5.65
2023-04-03T09:51:02.810Z,5.70
2023-04-03T09:53:44.621Z,6.02
2023-04-03T09:56:17.330Z,5.99
2023-04-03T09:58:50.810Z,6.15
2023-04-03T10:01:29.346Z,6.34
2023-04-03T10:04:08.291Z,6.47
2023-04-03T10:06:50.261Z,6.57
2023-04-03T10:09:19.141Z,6.83
2023-04-03T10:12:02.536Z,6.76
2023-04-03T10:14:31.254Z,6.76
2023-04-03T10:17:04.519Z,6.57
2023-04-03T10:19:38.041Z,6.34
2023-04-03T10:22:17.192Z,6.16
2023-04-03T10:24:54.689Z,6.03
2023-04-03T10:27:40.948Z,5.94
2023-04-03T10:30:14.199Z,5.97
2023-04-03T10:33:07.034Z,6.12
2023-04-03T10:35:46.052Z,6.38
2023-04-03T10:38:24.545Z,6.45
2023-04-03T10:41:32.677Z,6.57
2023-04-03T10:44:30.109Z,6.64
2023-04-03T10:47:23.006Z,6.83
2023-04-03T10:50:24.129Z,6.96
2023-04-03T10:53:02.378Z,6.99
2023-04-03T10:55:49.576Z,7.25
2023-04-03T10:58:32.965Z,7.42
2023-04-03T11:01:08.214Z,7.64
2023-04-03T11:03:41.539Z,7.58
2023-04-03T11:06:12.321Z,7.63
2023-04-03T11:09:00.604Z,7.54
2023-04-03T11:11:41.332Z,7.33
2023-04-03T11:14:29.473Z,7.38
2023-04-03T11:17:26.284Z,7.26
2023-04-03T11:20:01.589Z,7.09
2023-04-03T11:22:35.034Z,7.20
2023-04-03T11:25:27.834Z,7.21
2023-04-03T11:28:37.091Z,7.47
2023-04-03T11:31:04.014Z,7.64
2023-04-03T11:33:58.197Z,7.72
2023-04-03T11:36:33.336Z,7.96
2023-04-03T11:39:22.184Z,7.87
2023-04-03T11:41:50.529Z,7.80
2023-04-03T11:44:35.696Z,7.86
2023-04-03T11:47:04.045Z,7.76
2023-04-03T11:50:01.530Z,7.80
2023-04-03T11:52:43.713Z,7.53
2023-04-03T11:55:23.525Z,7.63
2023-04-03T11:57:59.491Z,7.78
2023-04-03T12:00:45.229Z,7.78
2023-04-03T12:03:24.231Z,7.64
2023-04-03T12:05:58.733Z,7.64
2023-04-03T12:08:48.984Z,7.46
2023-04-03T12:11:25.119Z,7.41
2023-04-03T12:13:57.918Z,7.36
2023-04-03T12:16:40.473Z,7.33
2023-04-03T12:19:16.150Z,7.36
2023-04-03T12:21:49.586Z,7.28
2023-04-03T12:24:16.096Z,7.47
2023-04-03T12:27:05.313Z,7.46
2023-04-03T12:29:43.880Z,7.37
2023-04-03T12:32:38.954Z,7.59
2023-04-03T12:35:08.754Z,7.79
2023-04-03T12:37:44.332Z,8.03
2023-04-03T12:40:49.031Z,8.21
2023-04-03T12:43:33.513Z,8.06
2023-04-03T12:46:10.208Z,8.10
2023-04-03T12:48:46.258Z,7.82
2023-04-03T12:51:41.853Z,7.46
2023-04-03T12:54:23.296Z,7.47
2023-04-03T12:56:51.577Z,7.55
2023-04-03T12:59:27.214Z,7.54
2023-04-03T13:01:59.895Z,7.28
2023-04-03T13:04:28.540Z,7.26
2023-04-03T13:06:55.559Z,7.35
2023-04-03T13:09:31.230Z,7.24
2023-04-03T13:12:12.642Z,7.34
2023-04-03T13:14:40.372Z,7.36
2023-04-03T13:17:14.949Z,7.49
2023-04-03T13:19:43.623Z,7.63
2023-04-03T13:22:33.851Z,7.61
2023-04-03T13:25:07.280Z,7.57
2023-04-03T13:27:34.393Z,7.54
2023-04-03T13:30:04.255Z,7.70
2023-04-03T13:32:33.276Z,7.74
2023-04-03T13:35:15.466Z,7.83
2023-04-03T13:37:58.074Z,7.89
2023-04-03T13:40:30.014Z,8.03
2023-04-03T13:43:04.333Z,7.98
2023-04-03T13:45:34.679Z,7.83
2023-04-03T13:48:23.291Z,7.82
2023-04-03T13:50:57.858Z,7.86
2023-04-03T13:53:26.067Z,7.95
2023-04-03T13:56:04.854Z,8.07
2023-04-03T13:58:33.934Z,8.06
2023-04-03T14:01:21.231Z,8.07
2023-04-03T14:03:55.802Z,8.06
2023-04-03T14:06:22.992Z,7.92
2023-04-03T14:08:50.374Z,7.90
2023-04-03T14:11:37.395Z,7.84
2023-04-03T14:14:24.793Z,7.78
2023-04-03T14:16:58.623Z,7.63
2023-04-03T14:19:31.873Z,7.57
2023-04-03T14:22:04.632Z,7.62
2023-04-03T14:24:31.959Z,7.64
2023-04-03T14:26:58.756Z,7.52
2023-04-03T14:29:26.080Z,7.42
2023-04-03T14:32:03.676Z,7.46
2023-04-03T14:34:34.975Z,7.45
2023-04-03T14:37:01.794Z,7.33
2023-04-03T14:39:29.297Z,7.43
2023-04-03T14:41:56.158Z,7.53
2023-04-03T14:44:24.733Z,7.53
2023-04-03T14:46:56.718Z,7.38
2023-04-03T14:49:30.535Z,7.27
2023-04-03T14:51:58.631Z,7.22
2023-04-03T14:54:29.201Z,7.13
2023-04-03T14:56:58.178Z,7.13
2023-04-03T14:59:33.585Z,7.17
2023-04-03T15:02:00.388Z,7.15
2023-04-03T15:04:29.306Z,7.12
2023-04-03T15:06:56.127Z,6.99
2023-04-03T15:09:26.938Z,6.93
2023-04-03T15:11:55.314Z,6.91
2023-04-03T15:14:35.444Z,6.94
2023-04-03T15:17:06.369Z,6.92
2023-04-03T15:19:42.905Z,6.97
2023-04-03T15:22:18.732Z,7.01
2023-04-03T15:24:46.142Z,7.02
2023-04-03T15:27:14.428Z,7.00
2023-04-03T15:29:42.819Z,6.91
2023-04-03T15:32:10.888Z,6.73
2023-04-03T15:34:38.058Z,6.66
2023-04-03T15:37:05.313Z,6.66
2023-04-03T15:39:32.245Z,6.69
2023-04-03T15:42:07.277Z,6.77
2023-04-03T15:44:37.340Z,6.76
2023-04-03T15:47:04.649Z,6.77
2023-04-03T15:49:33.898Z,6.79
2023-04-03T15:52:01.608Z,6.74
2023-04-03T15:54:30.376Z,6.76
2023-04-03T15:56:58.316Z,6.77
2023-04-03T15:59:27.256Z,6.74
2023-04-03T16:01:54.738Z,6.73
2023-04-03T16:04:21.892Z,6.71
2023-04-03T16:06:50.262Z,6.73
2023-04-03T16:09:17.042Z,6.62
2023-04-03T16:11:44.730Z,6.57
2023-04-03T16:14:11.404Z,6.61
2023-04-03T16:16:39.793Z,6.65
2023-04-03T16:19:07.142Z,6.66
2023-04-03T16:21:36.139Z,6.65
2023-04-03T16:24:04.038Z,6.69
2023-04-03T16:26:31.517Z,6.71
2023-04-03T16:28:58.132Z,6.61
2023-04-03T16:31:27.362Z,6.58
2023-04-03T16:33:54.085Z,6.55
2023-04-03T16:36:20.945Z,6.50
2023-04-03T16:38:47.816Z,6.44
2023-04-03T16:41:14.414Z,6.38
2023-04-03T16:46:09.808Z,6.27
2023-04-03T16:48:37.110Z,6.23
2023-04-03T16:51:03.866Z,6.25
2023-04-03T16:53:30.781Z,6.22
2023-04-03T16:55:59.150Z,6.15
2023-04-03T16:58:26.513Z,6.15
2023-04-03T17:00:54.520Z,6.11
2023-04-03T17:03:24.463Z,6.06
2023-04-03T17:05:51.205Z,6.04
2023-04-03T17:08:19.421Z,6.02
2023-04-03T17:10:50.306Z,5.96
2023-04-03T17:13:19.932Z,5.93
2023-04-03T17:15:46.551Z,5.88
2023-04-03T17:18:13.984Z,5.87
2023-04-03T17:20:41.244Z,5.84
2023-04-03T17:23:09.217Z,5.79
2023-04-03T17:25:35.846Z,5.79
2023-04-03T17:28:03.165Z,5.75
2023-04-03T17:30:29.771Z,5.78
2023-04-03T17:32:57.079Z,5.71
2023-04-03T17:35:23.909Z,5.69
2023-04-03T17:37:51.028Z,5.66
2023-04-03T17:40:18.701Z,5.65
2023-04-03T17:42:46.125Z,5.61
2023-04-03T17:45:12.890Z,5.61
2023-04-03T17:47:40.185Z,5.55
2023-04-03T17:50:07.205Z,5.48
2023-04-03T17:52:34.531Z,5.42
2023-04-03T17:55:01.165Z,5.38
2023-04-03T17:57:28.162Z,5.33
2023-04-03T17:59:55.012Z,5.32
2023-04-03T18:02:21.875Z,5.26
2023-04-03T18:04:51.613Z,5.21
2023-04-03T18:07:19.511Z,5.16
2023-04-03T18:09:48.694Z,5.09
2023-04-03T18:12:15.966Z,5.00
2023-04-03T18:14:43.518Z,4.92
2023-04-03T18:17:11.294Z,4.87
2023-04-03T18:19:38.152Z,4.81
2023-04-03T18:22:09.982Z,4.72
2023-04-03T18:24:37.054Z,4.67
2023-04-03T18:27:11.921Z,4.61
2023-04-03T18:29:41.519Z,4.53
2023-04-03T18:32:12.277Z,4.49
2023-04-03T18:34:38.896Z,4.44
2023-04-03T18:37:06.347Z,4.36
2023-04-03T18:39:33.001Z,4.30
2023-04-03T18:42:07.575Z,4.23
2023-04-03T18:44:36.074Z,4.18
2023-04-03T18:47:03.325Z,4.13
2023-04-03T18:49:32.589Z,4.06
2023-04-03T18:51:59.984Z,4.02
2023-04-03T18:54:26.554Z,3.94
2023-04-03T18:56:53.485Z,3.89
2023-04-03T18:59:20.194Z,3.82
2023-04-03T19:01:47.177Z,3.74
2023-04-03T19:04:14.442Z,3.67
2023-04-03T19:06:41.837Z,3.58
2023-04-03T19:09:08.533Z,3.50
2023-04-03T19:11:36.796Z,3.43
2023-04-03T19:14:15.304Z,3.38
2023-04-03T19:16:45.097Z,3.33
2023-04-03T19:19:12.019Z,3.29
2023-04-03T19:21:41.740Z,3.23
2023-04-03T19:24:10.220Z,3.16
2023-04-03T19:26:37.681Z,3.13
2023-04-03T19:29:04.533Z,3.08
2023-04-03T19:31:34.151Z,3.04
2023-04-03T19:34:02.516Z,3.00
2023-04-03T19:36:30.895Z,2.94
2023-04-03T19:38:57.575Z,2.88
2023-04-03T19:41:27.798Z,2.85
2023-04-03T19:43:55.912Z,2.83
2023-04-03T19:46:29.946Z,2.84
2023-04-03T19:48:56.898Z,2.78
2023-04-03T19:51:24.373Z,2.73
2023-04-03T19:53:53.007Z,2.71
2023-04-03T19:56:22.132Z,2.67
2023-04-03T19:58:54.178Z,2.64
2023-04-03T20:01:27.215Z,2.60
2023-04-03T20:03:53.906Z,2.56
2023-04-03T20:06:21.912Z,2.53
2023-04-03T20:08:49.548Z,2.49
2023-04-03T20:11:17.026Z,2.45
2023-04-03T20:13:43.596Z,2.38
2023-04-03T20:16:11.078Z,2.34
2023-04-03T20:18:38.594Z,2.30
2023-04-03T20:21:07.625Z,2.27
2023-04-03T20:23:37.122Z,2.23
2023-04-03T20:26:11.212Z,2.19
2023-04-03T20:28:40.245Z,2.15
